Aviation Digital Data Service (ADDS)

Output produced by METARs form (2107 UTC 20 August 2019)
found at http://www.aviationweather.gov/metar/data/
 
Forecast for: KMLB (MELBOURNE , FL, US)
Text: KMLB 201734Z 2018/2118 12011KT P6SM FEW035 BKN250
Forecast period: 1800 UTC 20 August 2019 to 0100 UTC 21 August 2019
Forecast type: FROM: standard forecast or significant change
Winds: from the ESE (120 degrees) at 13 MPH (11 knots; 5.7 m/s)
Visibility: 6 or more miles 10+ km)
Ceiling: 25000 feet AGL
Clouds: few clouds at 3500 feet AGL
broken clouds at 25000 feet AGL
Weather: no significant weather forecast for this period
Text: FM210100 12006KT P6SM FEW030 SCT250
Forecast period: 0100 to 1800 UTC 21 August 2019
Forecast type: FROM: standard forecast or significant change
Winds: from the ESE (120 degrees) at 7 MPH (6 knots; 3.1 m/s)
Visibility: 6 or more miles 10+ km)
Ceiling: at least 12,000 feet AGL
Clouds: few clouds at 3000 feet AGL
scattered clouds at 25000 feet AGL
Weather: no significant weather forecast for this period